Time;durP1;ratioP1;P1;durP2;ratioP2;P2;SDS_P1;SDS_P2;PMS_P1;PMS_P2;Temp;Humidity;BMP_temperature;BMP_pressure;BME280_temperature;BME280_humidity;BME280_pressure;Samples;Min_cycle;Max_cycle;Signal;HPM_P1;HPM_P2
2021/06/04 00:00:16;;;;;;;13.40;11.83;;;;;;;-144.99;98.87;52223.88;5112989;28;20709;-78
2021/06/04 00:02:52;;;;;;;15.07;13.47;;;;;;;-144.99;99.01;52211.66;5115205;28;20207;-80
2021/06/04 00:05:30;;;;;;;14.87;13.47;;;;;;;-144.99;98.76;52232.03;5115011;28;20669;-78
2021/06/04 00:08:06;;;;;;;13.47;12.17;;;;;;;-144.99;98.71;52240.19;5109450;28;20207;-79
2021/06/04 00:10:41;;;;;;;16.33;14.70;;;;;;;-144.99;98.81;52252.44;5100619;28;20290;-78
2021/06/04 00:13:26;;;;;;;14.00;12.67;;;;;;;-144.99;98.87;52240.19;5106558;28;20687;-78
2021/06/04 00:16:05;;;;;;;13.67;12.43;;;;;;;-144.99;98.86;52227.97;5104322;28;20314;-77
2021/06/04 00:18:41;;;;;;;13.87;12.63;;;;;;;-144.99;98.82;52223.88;5113625;28;20239;-78
2021/06/04 00:21:20;;;;;;;14.27;12.87;;;;;;;-144.99;98.96;52240.19;5113256;28;20242;-78
2021/06/04 00:23:57;;;;;;;14.83;13.53;;;;;;;-144.99;98.75;52203.50;5112968;28;20211;-78
2021/06/04 00:26:29;;;;;;;15.83;14.23;;;;;;;-144.99;98.77;52236.13;5114050;28;20222;-78
2021/06/04 00:29:01;;;;;;;15.77;13.67;;;;;;;-144.99;98.68;52191.28;5113142;28;20607;-78
2021/06/04 00:31:51;;;;;;;15.07;13.77;;;;;;;-144.99;99.04;52227.97;5113517;28;20625;-79
2021/06/04 00:34:23;;;;;;;16.30;14.60;;;;;;;-144.99;99.05;52219.81;5109203;28;20203;-79
2021/06/04 00:36:58;;;;;;;12.53;11.20;;;;;;;-144.99;99.01;52240.19;5102085;28;20236;-78
2021/06/04 00:39:36;;;;;;;14.10;12.60;;;;;;;-144.99;99.10;52207.59;5104509;28;20307;-78
2021/06/04 00:42:16;;;;;;;13.43;12.17;;;;;;;-144.99;98.98;52221.84;5112852;28;20210;-81
2021/06/04 00:44:52;;;;;;;14.67;13.27;;;;;;;-144.99;99.17;52195.34;5101935;28;20214;-79
2021/06/04 00:47:32;;;;;;;16.57;13.43;;;;;;;-144.99;99.05;52223.88;5111913;28;20310;-79
2021/06/04 00:50:08;;;;;;;13.97;12.57;;;;;;;-144.99;98.87;52211.66;5105015;28;20690;-79
2021/06/04 00:52:44;;;;;;;14.27;12.90;;;;;;;-144.99;99.10;52219.81;5111631;28;20306;-79
2021/06/04 00:55:21;;;;;;;16.73;15.13;;;;;;;-144.99;99.12;52179.06;5113080;28;20662;-78
2021/06/04 00:57:57;;;;;;;15.37;13.97;;;;;;;-144.99;99.12;52236.13;5105894;28;20203;-77
2021/06/04 01:00:33;;;;;;;18.23;13.73;;;;;;;-144.99;99.20;52215.75;5107827;28;20231;-77
2021/06/04 01:03:08;;;;;;;16.40;14.60;;;;;;;-144.99;99.13;52256.50;5108771;28;20212;-78
2021/06/04 01:05:43;;;;;;;16.27;14.60;;;;;;;-144.99;99.24;52240.19;5110964;28;20317;-78
2021/06/04 01:08:43;;;;;;;17.47;14.90;;;;;;;-144.99;99.22;52223.88;5100746;28;20206;-77
2021/06/04 01:11:27;;;;;;;26.70;18.87;;;;;;;-144.99;99.37;52211.66;5110404;28;20199;-76
2021/06/04 01:14:20;;;;;;;17.63;16.10;;;;;;;-144.99;99.35;52246.31;5103890;28;20636;-77
2021/06/04 01:17:04;;;;;;;15.33;14.03;;;;;;;-144.99;99.46;52207.59;5110038;28;20337;-77
2021/06/04 01:20:04;;;;;;;16.53;14.93;;;;;;;-144.99;99.57;52211.66;5104860;28;20666;-78
2021/06/04 01:23:04;;;;;;;17.77;15.83;;;;;;;-144.99;99.43;52227.97;5107942;28;20686;-78
2021/06/04 01:25:48;;;;;;;18.43;16.73;;;;;;;-144.99;99.61;52215.75;5112299;28;20215;-78
2021/06/04 01:28:29;;;;;;;18.10;16.30;;;;;;;-144.99;99.69;52217.78;5095933;28;20597;-77
2021/06/04 01:31:09;;;;;;;17.57;15.93;;;;;;;-144.99;99.81;52217.78;5099240;28;20199;-78
2021/06/04 01:33:48;;;;;;;17.77;15.67;;;;;;;-144.99;99.88;52230.00;5101640;28;20195;-78
2021/06/04 01:36:22;;;;;;;16.27;14.90;;;;;;;-144.99;99.94;52199.44;5106447;28;20287;-79
2021/06/04 01:38:58;;;;;;;17.70;16.10;;;;;;;-144.99;100.00;52211.66;5115986;28;20558;-77
2021/06/04 01:41:46;;;;;;;17.10;15.60;;;;;;;-144.99;100.00;52223.88;5111328;28;20219;-78
2021/06/04 01:44:23;;;;;;;19.10;17.20;;;;;;;-144.99;100.00;52227.97;5113037;28;20207;-77
2021/06/04 01:47:01;;;;;;;16.53;15.03;;;;;;;-144.99;100.00;52223.88;5111742;28;20239;-78
2021/06/04 01:49:35;;;;;;;19.57;16.57;;;;;;;-144.99;100.00;52219.81;5102981;28;20260;-79
2021/06/04 01:52:16;;;;;;;18.10;16.43;;;;;;;-144.99;100.00;52207.59;5110117;28;20230;-78
2021/06/04 01:54:55;;;;;;;17.47;15.77;;;;;;;-144.99;100.00;52207.59;5108861;28;20289;-78
2021/06/04 01:57:32;;;;;;;16.37;14.83;;;;;;;-144.99;100.00;52211.66;5108828;28;20227;-78
2021/06/04 02:00:09;;;;;;;17.53;14.80;;;;;;;-144.99;100.00;52195.34;5104935;28;20256;-77
2021/06/04 02:02:44;;;;;;;16.27;14.67;;;;;;;-144.99;100.00;52268.72;5105834;28;20662;-73
2021/06/04 02:05:19;;;;;;;17.67;15.97;;;;;;;-144.99;100.00;52215.75;5097262;28;20688;-75
2021/06/04 02:07:55;;;;;;;17.50;15.90;;;;;;;-144.99;100.00;52219.81;5103838;28;20223;-75
2021/06/04 02:10:33;;;;;;;14.87;13.60;;;;;;;-144.99;100.00;52252.44;5105852;28;20723;-75
2021/06/04 02:13:08;;;;;;;17.77;15.20;;;;;;;-144.99;100.00;52232.03;5101447;28;20314;-74
2021/06/04 02:15:44;;;;;;;18.97;17.00;;;;;;;-144.99;100.00;52252.44;5109913;28;20231;-75
2021/06/04 02:18:25;;;;;;;28.57;20.83;;;;;;;-144.99;100.00;52211.66;5109747;28;20203;-75
2021/06/04 02:21:05;;;;;;;31.33;22.83;;;;;;;-144.99;100.00;52240.19;5104022;28;20702;-77
2021/06/04 02:23:45;;;;;;;22.80;18.27;;;;;;;-144.99;100.00;52248.34;5097720;28;20211;-77
2021/06/04 02:26:24;;;;;;;18.50;15.37;;;;;;;-144.99;100.00;52223.88;5111034;28;20276;-76
2021/06/04 02:29:05;;;;;;;17.67;15.97;;;;;;;-144.99;100.00;52256.50;5106588;28;20208;-75
2021/06/04 02:31:45;;;;;;;17.43;15.77;;;;;;;-144.99;100.00;52223.88;5110340;28;20234;-75
2021/06/04 02:34:24;;;;;;;17.43;15.67;;;;;;;-144.99;100.00;52242.22;5114193;28;20214;-74
2021/06/04 02:37:05;;;;;;;16.23;14.10;;;;;;;-144.99;100.00;52268.72;5106965;28;20234;-75
2021/06/04 02:39:41;;;;;;;17.47;15.87;;;;;;;-144.99;100.00;52199.44;5098196;28;20196;-77
2021/06/04 02:42:18;;;;;;;19.07;17.03;;;;;;;-144.99;100.00;52211.66;5116058;28;20697;-78
2021/06/04 02:44:57;;;;;;;19.03;17.03;;;;;;;-144.99;100.00;52232.03;5100430;28;20236;-77
2021/06/04 02:47:35;;;;;;;22.60;17.93;;;;;;;-144.99;100.00;52268.72;5109901;28;20223;-79
2021/06/04 02:50:14;;;;;;;28.87;19.37;;;;;;;-144.99;100.00;52203.50;5116086;28;20222;-79
2021/06/04 02:52:50;;;;;;;18.63;16.93;;;;;;;-144.99;100.00;52236.13;5115297;28;20286;-76
2021/06/04 02:55:25;;;;;;;18.10;16.33;;;;;;;-144.99;100.00;52195.34;5113135;28;20210;-77
2021/06/04 02:57:57;;;;;;;19.60;17.87;;;;;;;-144.99;100.00;52207.59;5124128;28;20224;-78
2021/06/04 03:00:38;;;;;;;21.63;18.77;;;;;;;-144.99;100.00;52219.81;5117612;28;20780;-78
2021/06/04 03:03:10;;;;;;;19.33;16.80;;;;;;;-144.99;100.00;52234.09;5133943;27;20201;-80
2021/06/04 03:05:45;;;;;;;16.93;15.13;;;;;;;-144.99;100.00;52203.50;5129075;28;20223;-80
2021/06/04 03:08:21;;;;;;;16.27;14.57;;;;;;;-144.99;100.00;52276.88;5133805;27;20183;-82
2021/06/04 03:10:56;;;;;;;19.57;16.53;;;;;;;-144.99;100.00;52217.78;5135420;27;20223;-84
2021/06/04 03:13:34;;;;;;;17.50;15.90;;;;;;;-144.99;100.00;52256.50;5136553;27;20191;-84
2021/06/04 03:16:14;;;;;;;15.87;14.43;;;;;;;-144.99;100.00;52203.50;5134965;27;20240;-85
2021/06/04 03:19:01;;;;;;;17.60;16.03;;;;;;;-144.99;100.00;52264.66;5130114;27;20226;-86
2021/06/04 03:21:39;;;;;;;16.10;14.43;;;;;;;-144.99;100.00;52227.97;5134758;27;20285;-81
2021/06/04 03:24:17;;;;;;;16.73;15.23;;;;;;;-144.99;100.00;52244.28;5134391;28;20188;-84
2021/06/04 03:26:49;;;;;;;17.57;15.73;;;;;;;-144.99;100.00;52256.50;5139321;27;20227;-83
2021/06/04 03:29:25;;;;;;;18.07;16.33;;;;;;;-144.99;100.00;52258.53;5139848;27;20221;-82
2021/06/04 03:32:03;;;;;;;19.03;17.23;;;;;;;-144.99;100.00;52207.59;5137333;27;20259;-76
2021/06/04 03:34:46;;;;;;;16.27;14.67;;;;;;;-144.99;100.00;52244.28;5139345;27;20207;-82
2021/06/04 03:37:23;;;;;;;20.77;17.47;;;;;;;-144.99;100.00;52268.72;5125994;28;20234;-80
2021/06/04 03:39:58;;;;;;;17.87;16.07;;;;;;;-144.99;100.00;52227.97;5139694;27;20209;-80
2021/06/04 03:42:34;;;;;;;15.77;14.27;;;;;;;-144.99;100.00;52203.50;5135613;27;20198;-80
2021/06/04 03:45:11;;;;;;;15.00;13.60;;;;;;;-144.99;100.00;52203.50;5134983;27;20222;-79
2021/06/04 03:47:47;;;;;;;14.90;13.33;;;;;;;-144.99;100.00;52246.31;5138361;27;20231;-79
2021/06/04 03:50:23;;;;;;;16.70;15.10;;;;;;;-144.99;100.00;52285.03;5140485;27;20236;-78
2021/06/04 03:52:59;;;;;;;15.13;13.60;;;;;;;-144.99;100.00;52280.97;5133913;27;20250;-78
2021/06/04 03:55:34;;;;;;;15.87;14.37;;;;;;;-144.99;100.00;52199.44;5131717;27;20239;-77
2021/06/04 03:58:10;;;;;;;15.37;13.63;;;;;;;-144.99;100.00;52240.19;5133674;27;20207;-78
2021/06/04 04:00:41;;;;;;;17.60;14.83;;;;;;;-144.99;100.00;52236.13;5136447;27;20222;-78
2021/06/04 04:03:17;;;;;;;13.00;11.80;;;;;;;-144.99;100.00;52289.13;5126824;28;20262;-79
2021/06/04 04:05:49;;;;;;;15.50;12.60;;;;;;;-144.99;100.00;52252.44;5136640;27;20755;-79
2021/06/04 04:08:25;;;;;;;15.53;13.93;;;;;;;-144.99;100.00;52240.19;5136845;27;20247;-77
2021/06/04 04:11:00;;;;;;;16.03;14.33;;;;;;;-144.99;100.00;52215.75;5130831;27;20194;-78
2021/06/04 04:13:35;;;;;;;14.17;12.73;;;;;;;-144.99;100.00;52268.72;5126882;27;20212;-79
2021/06/04 04:16:06;;;;;;;13.90;12.50;;;;;;;-144.99;100.00;52227.97;5134707;28;20295;-77
2021/06/04 04:18:40;;;;;;;15.27;13.70;;;;;;;-144.99;100.00;52252.44;5132436;27;20250;-76
2021/06/04 04:21:14;;;;;;;18.17;12.70;;;;;;;-144.99;100.00;52238.16;5138943;27;20240;-76
2021/06/04 04:23:53;;;;;;;17.37;15.30;;;;;;;-144.99;100.00;52207.59;5138034;27;20192;-78
2021/06/04 04:26:28;;;;;;;17.90;15.70;;;;;;;-144.99;100.00;52236.13;5138426;27;20222;-78
2021/06/04 04:29:04;;;;;;;14.83;13.33;;;;;;;-144.99;100.00;52260.56;5129562;27;20258;-78
2021/06/04 04:31:39;;;;;;;14.33;12.93;;;;;;;-144.99;100.00;52236.13;5135889;27;20251;-80
2021/06/04 04:34:16;;;;;;;14.43;12.93;;;;;;;-144.99;100.00;52191.28;5136732;27;20219;-82
2021/06/04 04:36:51;;;;;;;14.07;11.87;;;;;;;-144.99;100.00;52234.09;5134171;27;20239;-78
2021/06/04 04:39:30;;;;;;;16.07;13.17;;;;;;;-144.99;100.00;52244.28;5138675;27;20211;-81
2021/06/04 04:42:08;;;;;;;13.77;12.47;;;;;;;-144.99;100.00;52236.13;5118664;27;20306;-78
2021/06/04 04:44:42;;;;;;;17.30;12.00;;;;;;;-144.99;99.84;52252.44;5106944;28;20244;-75
2021/06/04 04:47:20;;;;;;;13.00;11.70;;;;;;;-144.99;99.76;52223.88;5113590;28;20718;-77
2021/06/04 04:49:55;;;;;;;15.10;13.67;;;;;;;-144.99;99.69;52236.13;5112518;28;20208;-76
2021/06/04 04:52:27;;;;;;;12.73;11.53;;;;;;;-144.99;99.58;52236.13;5111910;28;20692;-78
2021/06/04 04:55:03;;;;;;;14.17;12.87;;;;;;;-144.99;99.71;52203.50;5102420;28;20204;-76
2021/06/04 04:57:37;;;;;;;14.47;13.07;;;;;;;-144.99;99.60;52219.81;5112332;28;20195;-80
2021/06/04 05:00:16;;;;;;;13.47;12.07;;;;;;;-144.99;99.30;52227.97;5114003;28;20198;-84
2021/06/04 05:02:48;;;;;;;14.23;11.50;;;;;;;-144.99;99.27;52183.13;5120831;28;20203;-82
2021/06/04 05:05:27;;;;;;;13.63;12.33;;;;;;;-144.99;98.92;52191.28;5110250;28;20195;-82
2021/06/04 05:08:02;;;;;;;13.80;12.50;;;;;;;-144.99;98.49;52215.75;5117607;28;20230;-87
2021/06/04 05:10:37;;;;;;;12.47;10.83;;;;;;;-144.99;97.96;52223.88;5124104;28;20234;-83
2021/06/04 05:13:13;;;;;;;11.23;10.23;;;;;;;-144.99;97.54;52195.34;5124836;28;20270;-83
2021/06/04 05:15:48;;;;;;;12.53;11.37;;;;;;;-144.99;97.41;52211.66;5105648;28;20227;-81
2021/06/04 05:18:20;;;;;;;11.47;10.20;;;;;;;-144.99;97.03;52211.66;5121980;28;20210;-85
2021/06/04 05:20:56;;;;;;;12.73;10.57;;;;;;;-144.99;96.92;52248.34;5123352;27;20212;-87
2021/06/04 05:23:31;;;;;;;12.30;10.90;;;;;;;-144.99;96.33;52219.81;5129378;27;20204;-80
2021/06/04 05:26:06;;;;;;;13.13;11.73;;;;;;;-144.99;95.85;52179.06;5113221;28;20296;-76
2021/06/04 05:28:42;;;;;;;12.40;11.20;;;;;;;-144.99;95.49;52187.19;5122704;28;20280;-80
2021/06/04 05:31:13;;;;;;;15.20;11.23;;;;;;;-144.99;94.83;52211.66;5103267;28;20210;-78
2021/06/04 05:33:49;;;;;;;11.27;10.27;;;;;;;-144.99;94.07;52227.97;5115653;28;20286;-79
2021/06/04 05:36:31;;;;;;;13.93;10.50;;;;;;;-144.99;93.48;52207.59;5113132;28;20704;-77
2021/06/04 05:39:08;;;;;;;10.70;9.77;;;;;;;-144.99;93.03;52236.13;5101810;28;20231;-77
2021/06/04 05:41:43;;;;;;;11.40;10.10;;;;;;;-144.99;92.38;52219.81;5118741;27;20225;-84
2021/06/04 05:44:18;;;;;;;14.57;10.13;;;;;;;-144.99;91.73;52203.50;5122521;28;20216;-82
2021/06/04 05:46:51;;;;;;;11.33;10.23;;;;;;;-144.99;91.24;52227.97;5116095;28;20248;-81
2021/06/04 05:49:27;;;;;;;12.67;11.27;;;;;;;-144.99;90.96;52211.66;5118999;28;20238;-81
2021/06/04 05:52:09;;;;;;;11.23;10.03;;;;;;;-144.99;90.66;52203.50;5116696;28;20245;-80
2021/06/04 05:54:45;;;;;;;16.07;11.67;;;;;;;-144.99;90.48;52246.31;5108449;28;20214;-78
2021/06/04 05:57:18;;;;;;;12.83;9.87;;;;;;;-144.99;89.51;52183.13;5104205;28;20223;-79
2021/06/04 05:59:53;;;;;;;13.77;10.67;;;;;;;-144.99;89.33;52219.81;5103646;28;20201;-78
2021/06/04 06:02:27;;;;;;;16.57;11.50;;;;;;;-144.99;89.37;52207.59;5097650;28;20234;-79
2021/06/04 06:04:56;;;;;;;21.53;13.83;;;;;;;-144.99;89.23;52227.97;5100544;28;20283;-79
2021/06/04 06:07:32;;;;;;;13.20;11.10;;;;;;;-144.99;89.37;52223.88;5111174;28;20229;-79
2021/06/04 06:10:04;;;;;;;13.50;10.13;;;;;;;-144.99;89.20;52187.19;5109956;28;20203;-81
2021/06/04 06:12:40;;;;;;;12.23;10.33;;;;;;;-144.99;88.86;52199.44;5112002;28;20658;-79
2021/06/04 06:15:16;;;;;;;13.63;11.37;;;;;;;-144.99;87.99;52215.75;5113543;28;20196;-81
2021/06/04 06:17:48;;;;;;;12.93;11.53;;;;;;;-144.99;87.29;52168.84;5108317;28;20265;-80
2021/06/04 06:20:22;;;;;;;9.90;8.90;;;;;;;-144.99;86.25;52225.94;5108257;28;20328;-82
2021/06/04 06:23:03;;;;;;;11.53;9.77;;;;;;;-144.99;85.24;52219.81;5114362;28;20296;-82
2021/06/04 06:25:40;;;;;;;10.33;8.70;;;;;;;-144.99;85.38;52164.78;5117793;28;20296;-79
2021/06/04 06:28:18;;;;;;;14.37;10.07;;;;;;;-144.99;85.06;52174.97;5112662;28;20235;-79
2021/06/04 06:30:53;;;;;;;10.40;8.97;;;;;;;-144.99;84.66;52211.66;5118641;28;20231;-81
2021/06/04 06:33:27;;;;;;;11.63;10.50;;;;;;;-144.99;84.46;52197.41;5114142;28;20221;-82
2021/06/04 06:36:04;;;;;;;8.90;7.60;;;;;;;-144.99;84.39;52207.59;5118081;28;20262;-82
2021/06/04 06:38:41;;;;;;;9.70;8.70;;;;;;;-144.99;83.68;52146.44;5106784;28;20228;-81
2021/06/04 06:41:17;;;;;;;10.50;8.93;;;;;;;-144.99;82.11;52219.81;5114554;28;20224;-81
2021/06/04 06:43:52;;;;;;;10.23;8.60;;;;;;;-144.99;81.72;52183.13;5116177;22;20295;-74
2021/06/04 06:46:29;;;;;;;10.30;8.83;;;;;;;-144.99;80.32;52195.34;5069965;28;20206;-74
2021/06/04 06:49:04;;;;;;;14.57;10.87;;;;;;;-144.99;80.10;52187.19;5064453;28;20266;-74
2021/06/04 06:51:37;;;;;;;11.93;9.93;;;;;;;-144.99;80.50;52193.31;5069025;28;20226;-75
2021/06/04 06:54:16;;;;;;;14.53;10.03;;;;;;;-144.99;80.22;52154.59;5063555;28;20354;-75
2021/06/04 06:56:51;;;;;;;12.47;9.57;;;;;;;-144.99;79.24;52179.06;5069558;28;20227;-74
2021/06/04 06:59:25;;;;;;;12.77;8.97;;;;;;;-144.99;78.80;52183.13;5065027;28;20201;-75
2021/06/04 07:02:00;;;;;;;11.80;10.57;;;;;;;-144.99;76.59;52158.66;5068239;28;20240;-76
2021/06/04 07:04:34;;;;;;;10.20;8.60;;;;;;;-144.99;75.22;52179.06;5072518;28;20235;-76
2021/06/04 07:07:06;;;;;;;14.40;9.73;;;;;;;-144.99;75.19;52179.06;5073964;28;20200;-75
2021/06/04 07:09:51;;;;;;;11.83;9.47;;;;;;;-144.99;74.85;52181.09;5072852;28;20312;-77
2021/06/04 07:12:26;;;;;;;15.10;9.47;;;;;;;-144.99;75.81;52207.59;5064091;28;20200;-76
2021/06/04 07:15:00;;;;;;;9.70;8.67;;;;;;;-144.99;76.08;52195.34;5068070;28;20220;-75
2021/06/04 07:17:35;;;;;;;15.60;8.97;;;;;;;-144.99;75.29;52162.75;5076083;28;20474;-75
2021/06/04 07:20:11;;;;;;;11.53;10.30;;;;;;;-144.99;74.43;52185.16;5075433;28;20200;-76
2021/06/04 07:22:45;;;;;;;13.07;10.53;;;;;;;-144.99;73.31;52162.75;5074179;28;20300;-75
2021/06/04 07:25:22;;;;;;;9.37;8.20;;;;;;;-144.99;73.44;52170.91;5074074;28;20258;-75
2021/06/04 07:27:57;;;;;;;11.20;8.13;;;;;;;-144.99;72.83;52197.41;5074307;28;20293;-75
2021/06/04 07:30:36;;;;;;;11.43;8.47;;;;;;;-144.99;73.09;52170.91;5073039;28;20259;-75
2021/06/04 07:33:14;;;;;;;10.60;8.10;;;;;;;-144.99;72.56;52187.19;5072417;28;20317;-77
2021/06/04 07:35:46;;;;;;;9.53;8.53;;;;;;;-144.99;71.40;52183.13;5072533;28;20266;-76
2021/06/04 07:38:21;;;;;;;8.57;7.63;;;;;;;-144.99;70.80;52126.06;5073543;28;20208;-77
2021/06/04 07:40:58;;;;;;;12.17;8.53;;;;;;;-144.99;69.34;52172.94;5065679;28;20227;-77
2021/06/04 07:43:35;;;;;;;10.93;8.30;;;;;;;-144.99;68.06;52162.75;5078203;28;20332;-77
2021/06/04 07:46:08;;;;;;;9.90;8.60;;;;;;;-144.99;68.17;52179.06;5080089;28;20271;-76
2021/06/04 07:48:43;;;;;;;14.63;9.23;;;;;;;-144.99;68.18;52174.97;5072455;28;20212;-75
2021/06/04 07:51:21;;;;;;;8.60;7.70;;;;;;;-144.99;68.35;52158.66;5070055;28;20209;-77
2021/06/04 07:53:56;;;;;;;9.80;8.50;;;;;;;-144.99;68.77;52154.59;5076555;28;20231;-77
2021/06/04 07:56:32;;;;;;;9.70;7.30;;;;;;;-144.99;68.29;52168.84;5074915;28;20208;-76
2021/06/04 07:59:07;;;;;;;10.17;9.20;;;;;;;-144.99;67.90;52164.78;5075275;28;20663;-76
2021/06/04 08:01:41;;;;;;;12.67;8.87;;;;;;;-144.99;66.81;52152.56;5070345;28;20786;-74
2021/06/04 08:04:16;;;;;;;11.23;8.17;;;;;;;-144.99;67.99;52187.19;5066482;28;20302;-74
2021/06/04 08:06:51;;;;;;;12.93;9.17;;;;;;;-144.99;68.29;52199.44;5071806;28;20242;-74
2021/06/04 08:09:27;;;;;;;12.93;8.90;;;;;;;-144.99;67.52;52164.78;5068919;28;20637;-76
2021/06/04 08:12:04;;;;;;;9.80;8.33;;;;;;;-144.99;67.46;52117.91;5060008;28;20269;-76
2021/06/04 08:14:36;;;;;;;11.30;9.07;;;;;;;-144.99;67.36;52195.34;5064639;28;20714;-75
2021/06/04 08:17:11;;;;;;;8.97;7.27;;;;;;;-144.99;66.88;52183.13;5072129;28;20235;-75
2021/06/04 08:19:45;;;;;;;11.00;9.43;;;;;;;-144.99;67.17;52168.84;4367692;28;10000717;-74
2021/06/04 08:22:20;;;;;;;8.73;7.87;;;;;;;-144.99;66.23;52146.44;5062615;28;20226;-75
2021/06/04 08:24:55;;;;;;;11.03;8.67;;;;;;;-144.99;66.52;52195.34;5050946;28;20687;-76
2021/06/04 08:27:30;;;;;;;10.07;9.07;;;;;;;-144.99;67.05;52130.13;5067303;28;20276;-75
2021/06/04 08:30:06;;;;;;;13.63;9.73;;;;;;;-144.99;66.30;52174.97;5061873;28;20667;-74
2021/06/04 08:32:35;;;;;;;14.33;10.03;;;;;;;-144.99;66.08;52146.44;5058530;28;20208;-75
2021/06/04 08:35:11;;;;;;;9.93;8.20;;;;;;;-144.99;64.60;52158.66;5061247;28;20547;-75
2021/06/04 08:37:46;;;;;;;14.23;9.90;;;;;;;-144.99;64.16;52107.72;5061335;28;20290;-73
2021/06/04 08:40:27;;;;;;;11.77;9.60;;;;;;;-144.99;63.90;52174.97;5066175;28;20213;-75
2021/06/04 08:43:16;;;;;;;11.80;8.03;;;;;;;-144.99;62.42;52103.66;5070099;28;20241;-74
2021/06/04 08:46:03;;;;;;;10.97;8.77;;;;;;;-144.99;60.95;52166.81;5061898;28;20218;-74
2021/06/04 08:48:49;;;;;;;14.13;9.77;;;;;;;-144.99;60.80;52170.91;5065562;28;20326;-75
2021/06/04 08:51:33;;;;;;;11.00;9.63;;;;;;;-144.99;61.36;52146.44;5062689;28;20644;-73
2021/06/04 08:54:31;;;;;;;9.43;8.53;;;;;;;-144.99;61.88;52138.28;5060403;28;20285;-74
2021/06/04 08:57:11;;;;;;;10.03;8.00;;;;;;;-144.99;59.85;52134.22;5065569;28;20309;-73
2021/06/04 08:59:45;;;;;;;11.60;9.27;;;;;;;-144.99;59.04;52113.84;5056805;28;20242;-76
2021/06/04 09:02:24;;;;;;;9.13;7.80;;;;;;;-144.99;58.67;52142.38;5058407;28;20327;-76
2021/06/04 09:05:04;;;;;;;9.27;8.03;;;;;;;-144.99;60.22;52117.91;5057558;28;20211;-75
2021/06/04 09:07:40;;;;;;;11.40;8.03;;;;;;;-144.99;59.34;52109.75;5065432;28;20216;-74
2021/06/04 09:10:18;;;;;;;15.10;8.60;;;;;;;-144.99;57.03;52101.59;5064149;28;20209;-73
2021/06/04 09:12:55;;;;;;;11.80;8.77;;;;;;;-144.99;57.22;52142.38;5055730;28;20300;-74
2021/06/04 09:15:35;;;;;;;8.80;7.57;;;;;;;-144.99;56.25;52134.22;5065855;28;20211;-75
2021/06/04 09:18:13;;;;;;;8.77;6.83;;;;;;;-144.99;54.47;52121.97;5066534;28;21123;-73
2021/06/04 09:20:53;;;;;;;9.97;7.40;;;;;;;-144.99;55.22;52101.59;5069352;28;20219;-73
2021/06/04 09:23:34;;;;;;;9.50;6.37;;;;;;;-144.99;54.78;52101.59;5069414;28;20622;-74
2021/06/04 09:26:11;;;;;;;9.13;6.90;;;;;;;-144.99;53.29;52111.78;5068765;28;20315;-74
2021/06/04 09:28:48;;;;;;;9.90;6.70;;;;;;;-144.99;52.97;52077.16;5068626;28;20243;-74
2021/06/04 09:31:37;;;;;;;9.60;6.43;;;;;;;-144.99;51.22;52093.44;5062865;28;20689;-74
2021/06/04 09:34:18;;;;;;;9.07;7.40;;;;;;;-144.99;52.52;52105.69;5057294;28;20239;-76
2021/06/04 09:36:56;;;;;;;8.13;5.93;;;;;;;-144.99;52.25;52113.84;5069483;28;20216;-73
2021/06/04 09:39:36;;;;;;;8.00;6.70;;;;;;;-144.99;51.48;52146.44;5069497;28;20671;-73
2021/06/04 09:42:28;;;;;;;9.40;7.40;;;;;;;-144.99;51.58;52095.50;5060408;28;20254;-73
2021/06/04 09:45:08;;;;;;;7.33;6.33;;;;;;;-144.99;52.21;52117.91;5069273;28;20213;-75
2021/06/04 09:47:41;;;;;;;12.33;8.10;;;;;;;-144.99;51.91;52109.75;5069250;28;20232;-76
2021/06/04 09:50:26;;;;;;;7.30;5.27;;;;;;;-144.99;49.51;52085.31;5069291;28;20328;-75
2021/06/04 09:53:12;;;;;;;7.60;6.73;;;;;;;-144.99;50.71;52089.38;5057722;28;20256;-75
2021/06/04 09:55:49;;;;;;;7.33;6.10;;;;;;;-144.99;50.02;52117.91;5068092;28;20209;-75
2021/06/04 09:58:27;;;;;;;9.13;6.20;;;;;;;-144.99;49.40;52075.09;5068495;28;20297;-76
2021/06/04 10:01:16;;;;;;;6.00;5.40;;;;;;;-144.99;49.75;52113.84;5059919;28;20580;-74
2021/06/04 10:04:01;;;;;;;7.13;6.33;;;;;;;-144.99;48.75;52052.69;5059111;28;20227;-75
2021/06/04 10:06:46;;;;;;;8.60;7.70;;;;;;;-144.99;48.64;52069.00;5062325;28;20221;-78
2021/06/04 10:09:28;;;;;;;7.83;6.80;;;;;;;-144.99;47.49;52113.84;5067627;28;20229;-73
2021/06/04 10:12:07;;;;;;;10.23;6.47;;;;;;;-144.99;46.86;52077.16;5070868;28;20427;-74
2021/06/04 10:14:53;;;;;;;8.73;6.03;;;;;;;-144.99;46.90;51999.69;5070511;28;20238;-75
2021/06/04 10:17:59;;;;;;;9.47;6.97;;;;;;;-144.99;46.88;52060.84;5068208;28;20505;-76
2021/06/04 10:20:50;;;;;;;8.33;5.30;;;;;;;-144.99;46.08;52036.38;5075122;28;20287;-74
2021/06/04 10:23:37;;;;;;;8.30;6.47;;;;;;;-144.99;45.52;52044.53;5062552;28;20327;-75
2021/06/04 10:26:26;;;;;;;7.33;6.03;;;;;;;-144.99;45.81;52020.09;5067332;28;20216;-75
2021/06/04 10:28:59;;;;;;;6.97;5.63;;;;;;;-144.99;45.75;51995.63;5060449;28;20213;-75
2021/06/04 10:31:55;;;;;;;7.40;6.17;;;;;;;-144.99;45.81;52044.53;5066056;28;20723;-75
2021/06/04 10:34:55;;;;;;;9.07;7.07;;;;;;;-144.99;44.68;52028.22;5059915;28;20225;-75
2021/06/04 10:37:39;;;;;;;7.37;6.40;;;;;;;-144.99;44.76;52003.78;5025348;28;20212;-74
2021/06/04 10:40:21;;;;;;;9.03;7.57;;;;;;;-144.99;44.73;52032.31;5068002;28;20208;-76
2021/06/04 10:43:27;;;;;;;8.97;6.90;;;;;;;-144.99;45.52;52028.22;5064017;28;20228;-75
2021/06/04 10:46:06;;;;;;;7.33;6.03;;;;;;;-144.99;45.55;52024.16;5028577;28;20311;-75
2021/06/04 10:48:56;;;;;;;8.20;7.07;;;;;;;-144.99;43.24;51975.25;5068878;28;20327;-75
2021/06/04 10:51:43;;;;;;;8.07;7.27;;;;;;;-144.99;44.42;51987.47;5069487;28;20303;-76
2021/06/04 10:54:29;;;;;;;10.07;9.03;;;;;;;-144.99;44.15;52036.38;5060501;28;20627;-74
2021/06/04 10:57:06;;;;;;;9.07;7.37;;;;;;;-144.99;44.84;52054.72;5063877;28;20239;-73
2021/06/04 10:59:49;;;;;;;8.37;7.07;;;;;;;-144.99;44.99;52060.84;5056588;28;20654;-76
2021/06/04 11:02:41;;;;;;;8.67;7.80;;;;;;;-144.99;44.88;52005.81;5064262;28;20232;-74
2021/06/04 11:05:42;;;;;;;10.13;7.63;;;;;;;-144.99;44.90;52016.00;5065292;28;20212;-74
2021/06/04 11:08:39;;;;;;;7.73;6.93;;;;;;;-144.99;44.94;52024.16;5061986;28;20549;-73
2021/06/04 11:11:32;;;;;;;9.93;6.87;;;;;;;-144.99;43.97;51979.31;5051598;28;20656;-75
2021/06/04 11:14:33;;;;;;;10.80;8.43;;;;;;;-144.99;43.57;52024.16;5069126;28;20232;-75
2021/06/04 11:17:21;;;;;;;10.50;7.23;;;;;;;-144.99;43.09;51973.22;5070733;28;20226;-75
2021/06/04 11:20:00;;;;;;;9.67;7.50;;;;;;;-144.99;44.52;51985.44;5069257;28;20227;-75
2021/06/04 11:22:52;;;;;;;7.30;5.97;;;;;;;-144.99;43.79;51971.16;5059465;28;20229;-77
2021/06/04 11:25:50;;;;;;;7.83;6.07;;;;;;;-144.99;44.32;52016.00;5065858;28;20208;-74
2021/06/04 11:28:33;;;;;;;7.17;6.47;;;;;;;-144.99;44.57;52022.13;5066728;28;20275;-75
2021/06/04 11:31:13;;;;;;;10.00;6.03;;;;;;;-144.99;44.59;51967.09;5072789;28;20284;-75
2021/06/04 11:33:48;;;;;;;7.50;6.73;;;;;;;-144.99;43.43;51956.91;5071465;28;20239;-77
2021/06/04 11:36:28;;;;;;;7.43;6.30;;;;;;;-144.99;43.31;51950.78;5069610;28;20699;-74
2021/06/04 11:39:08;;;;;;;5.90;5.27;;;;;;;-144.99;42.85;51950.78;5061805;28;20245;-77
2021/06/04 11:41:49;;;;;;;23.67;8.07;;;;;;;-144.99;42.72;51999.69;5065865;28;20244;-73
2021/06/04 11:44:34;;;;;;;7.73;6.40;;;;;;;-144.99;41.54;51995.63;5067527;28;20259;-74
2021/06/04 11:47:40;;;;;;;7.67;6.80;;;;;;;-144.99;42.00;51958.94;5063529;28;20685;-75
2021/06/04 11:50:36;;;;;;;7.80;7.00;;;;;;;-144.99;42.07;52024.16;5025894;28;20283;-75
2021/06/04 11:53:35;;;;;;;8.57;7.30;;;;;;;-144.99;42.89;51991.56;5066628;28;20267;-75
2021/06/04 11:56:13;;;;;;;7.10;5.37;;;;;;;-144.99;43.80;52032.31;5070874;28;20302;-76